sensor_id;sensor_type;location;lat;lon;timestamp;temperature;humidity
14101;DHT22;7127;49.372;8.166;2023-03-13T00:00:55;15.00;50.00
14101;DHT22;7127;49.372;8.166;2023-03-13T00:03:22;14.90;49.90
14101;DHT22;7127;49.372;8.166;2023-03-13T00:05:49;14.90;50.00
14101;DHT22;7127;49.372;8.166;2023-03-13T00:08:16;14.90;50.00
14101;DHT22;7127;49.372;8.166;2023-03-13T00:10:44;15.00;50.00
14101;DHT22;7127;49.372;8.166;2023-03-13T00:13:11;15.00;50.10
14101;DHT22;7127;49.372;8.166;2023-03-13T00:15:37;15.00;50.10
14101;DHT22;7127;49.372;8.166;2023-03-13T00:18:04;15.00;50.10
14101;DHT22;7127;49.372;8.166;2023-03-13T00:20:31;15.00;50.10
14101;DHT22;7127;49.372;8.166;2023-03-13T00:22:58;15.00;50.20
14101;DHT22;7127;49.372;8.166;2023-03-13T00:25:25;15.10;50.30
14101;DHT22;7127;49.372;8.166;2023-03-13T00:27:53;15.00;50.30
14101;DHT22;7127;49.372;8.166;2023-03-13T00:30:20;15.00;50.30
14101;DHT22;7127;49.372;8.166;2023-03-13T00:32:47;15.00;50.30
14101;DHT22;7127;49.372;8.166;2023-03-13T00:35:14;15.00;50.30
14101;DHT22;7127;49.372;8.166;2023-03-13T00:37:41;15.10;50.30
14101;DHT22;7127;49.372;8.166;2023-03-13T00:40:11;15.10;50.30
14101;DHT22;7127;49.372;8.166;2023-03-13T00:42:37;15.10;50.40
14101;DHT22;7127;49.372;8.166;2023-03-13T00:45:06;15.10;50.40
14101;DHT22;7127;49.372;8.166;2023-03-13T00:47:33;15.10;50.40
14101;DHT22;7127;49.372;8.166;2023-03-13T00:50:00;15.10;50.40
14101;DHT22;7127;49.372;8.166;2023-03-13T00:52:27;15.10;50.40
14101;DHT22;7127;49.372;8.166;2023-03-13T00:54:54;15.10;50.50
14101;DHT22;7127;49.372;8.166;2023-03-13T00:57:21;15.10;50.50
14101;DHT22;7127;49.372;8.166;2023-03-13T00:59:47;15.10;50.50
14101;DHT22;7127;49.372;8.166;2023-03-13T01:02:16;15.10;50.60
14101;DHT22;7127;49.372;8.166;2023-03-13T01:04:42;15.10;50.60
14101;DHT22;7127;49.372;8.166;2023-03-13T01:07:09;15.10;51.20
14101;DHT22;7127;49.372;8.166;2023-03-13T01:09:36;15.10;50.70
14101;DHT22;7127;49.372;8.166;2023-03-13T01:12:03;15.00;50.60
14101;DHT22;7127;49.372;8.166;2023-03-13T01:14:30;15.20;50.70
14101;DHT22;7127;49.372;8.166;2023-03-13T01:16:57;15.10;50.70
14101;DHT22;7127;49.372;8.166;2023-03-13T01:19:25;15.20;50.90
14101;DHT22;7127;49.372;8.166;2023-03-13T01:21:52;15.20;50.80
14101;DHT22;7127;49.372;8.166;2023-03-13T01:24:19;15.20;50.90
14101;DHT22;7127;49.372;8.166;2023-03-13T01:26:46;15.20;50.90
14101;DHT22;7127;49.372;8.166;2023-03-13T01:29:13;15.20;50.90
14101;DHT22;7127;49.372;8.166;2023-03-13T01:31:40;15.20;50.80
14101;DHT22;7127;49.372;8.166;2023-03-13T01:34:09;15.20;50.80
14101;DHT22;7127;49.372;8.166;2023-03-13T01:36:37;15.20;50.70
14101;DHT22;7127;49.372;8.166;2023-03-13T01:39:05;15.20;50.60
14101;DHT22;7127;49.372;8.166;2023-03-13T01:41:32;15.20;50.60
14101;DHT22;7127;49.372;8.166;2023-03-13T01:43:58;15.20;50.50
14101;DHT22;7127;49.372;8.166;2023-03-13T01:46:26;15.10;50.40
14101;DHT22;7127;49.372;8.166;2023-03-13T01:48:57;15.10;50.40
14101;DHT22;7127;49.372;8.166;2023-03-13T01:51:26;15.10;50.40
14101;DHT22;7127;49.372;8.166;2023-03-13T01:54:02;15.00;50.40
14101;DHT22;7127;49.372;8.166;2023-03-13T01:56:35;15.10;50.40
14101;DHT22;7127;49.372;8.166;2023-03-13T01:59:04;15.10;50.40
14101;DHT22;7127;49.372;8.166;2023-03-13T02:01:32;15.00;50.30
14101;DHT22;7127;49.372;8.166;2023-03-13T02:03:59;15.00;50.40
14101;DHT22;7127;49.372;8.166;2023-03-13T02:06:28;15.00;50.40
14101;DHT22;7127;49.372;8.166;2023-03-13T02:09:00;15.00;50.50
14101;DHT22;7127;49.372;8.166;2023-03-13T02:11:36;14.90;50.50
14101;DHT22;7127;49.372;8.166;2023-03-13T02:14:05;14.90;50.70
14101;DHT22;7127;49.372;8.166;2023-03-13T02:16:33;14.90;50.70
14101;DHT22;7127;49.372;8.166;2023-03-13T02:19:02;14.90;50.80
14101;DHT22;7127;49.372;8.166;2023-03-13T02:21:38;14.90;50.80
14101;DHT22;7127;49.372;8.166;2023-03-13T02:24:14;14.90;50.90
14101;DHT22;7127;49.372;8.166;2023-03-13T02:26:44;14.90;50.90
14101;DHT22;7127;49.372;8.166;2023-03-13T02:29:11;14.80;50.90
14101;DHT22;7127;49.372;8.166;2023-03-13T02:31:44;14.80;51.10
14101;DHT22;7127;49.372;8.166;2023-03-13T02:34:13;14.80;51.20
14101;DHT22;7127;49.372;8.166;2023-03-13T02:36:41;14.80;51.30
14101;DHT22;7127;49.372;8.166;2023-03-13T02:39:08;14.80;51.40
14101;DHT22;7127;49.372;8.166;2023-03-13T02:41:36;14.70;51.40
14101;DHT22;7127;49.372;8.166;2023-03-13T02:44:05;14.70;51.50
14101;DHT22;7127;49.372;8.166;2023-03-13T02:46:42;14.70;51.60
14101;DHT22;7127;49.372;8.166;2023-03-13T02:49:21;14.70;51.90
14101;DHT22;7127;49.372;8.166;2023-03-13T02:51:49;14.70;52.00
14101;DHT22;7127;49.372;8.166;2023-03-13T02:54:19;14.70;51.90
14101;DHT22;7127;49.372;8.166;2023-03-13T02:56:49;14.70;52.00
14101;DHT22;7127;49.372;8.166;2023-03-13T02:59:18;14.60;52.00
14101;DHT22;7127;49.372;8.166;2023-03-13T03:01:45;14.50;52.10
14101;DHT22;7127;49.372;8.166;2023-03-13T03:04:17;14.60;52.40
14101;DHT22;7127;49.372;8.166;2023-03-13T03:06:44;14.60;52.40
14101;DHT22;7127;49.372;8.166;2023-03-13T03:09:11;14.60;52.60
14101;DHT22;7127;49.372;8.166;2023-03-13T03:11:38;14.60;52.70
14101;DHT22;7127;49.372;8.166;2023-03-13T03:14:05;14.60;52.90
14101;DHT22;7127;49.372;8.166;2023-03-13T03:16:33;14.60;52.90
14101;DHT22;7127;49.372;8.166;2023-03-13T03:19:00;14.60;53.10
14101;DHT22;7127;49.372;8.166;2023-03-13T03:21:27;14.50;53.10
14101;DHT22;7127;49.372;8.166;2023-03-13T03:23:54;14.50;53.20
14101;DHT22;7127;49.372;8.166;2023-03-13T03:26:21;14.50;53.30
14101;DHT22;7127;49.372;8.166;2023-03-13T03:28:48;14.50;53.30
14101;DHT22;7127;49.372;8.166;2023-03-13T03:31:15;14.50;53.50
14101;DHT22;7127;49.372;8.166;2023-03-13T03:33:44;14.40;53.50
14101;DHT22;7127;49.372;8.166;2023-03-13T03:36:13;14.40;53.50
14101;DHT22;7127;49.372;8.166;2023-03-13T03:38:40;14.40;53.70
14101;DHT22;7127;49.372;8.166;2023-03-13T03:41:08;14.40;53.80
14101;DHT22;7127;49.372;8.166;2023-03-13T03:43:35;14.40;53.80
14101;DHT22;7127;49.372;8.166;2023-03-13T03:46:03;14.40;54.10
14101;DHT22;7127;49.372;8.166;2023-03-13T03:48:30;14.30;54.00
14101;DHT22;7127;49.372;8.166;2023-03-13T03:50:58;14.30;54.10
14101;DHT22;7127;49.372;8.166;2023-03-13T03:53:25;14.30;54.20
14101;DHT22;7127;49.372;8.166;2023-03-13T03:55:52;14.30;54.30
14101;DHT22;7127;49.372;8.166;2023-03-13T03:58:19;14.20;54.30
14101;DHT22;7127;49.372;8.166;2023-03-13T04:00:46;14.30;54.50
14101;DHT22;7127;49.372;8.166;2023-03-13T04:03:14;14.20;54.50
14101;DHT22;7127;49.372;8.166;2023-03-13T04:05:42;14.20;54.60
14101;DHT22;7127;49.372;8.166;2023-03-13T04:08:10;14.20;54.70
14101;DHT22;7127;49.372;8.166;2023-03-13T04:10:37;14.20;54.80
14101;DHT22;7127;49.372;8.166;2023-03-13T04:13:04;14.20;55.40
14101;DHT22;7127;49.372;8.166;2023-03-13T04:15:31;14.20;54.90
14101;DHT22;7127;49.372;8.166;2023-03-13T04:17:58;14.10;54.90
14101;DHT22;7127;49.372;8.166;2023-03-13T04:20:24;14.10;55.00
14101;DHT22;7127;49.372;8.166;2023-03-13T04:22:53;14.10;55.10
14101;DHT22;7127;49.372;8.166;2023-03-13T04:25:21;14.10;55.10
14101;DHT22;7127;49.372;8.166;2023-03-13T04:27:48;14.10;55.30
14101;DHT22;7127;49.372;8.166;2023-03-13T04:30:16;14.10;55.30
14101;DHT22;7127;49.372;8.166;2023-03-13T04:32:42;14.10;55.30
14101;DHT22;7127;49.372;8.166;2023-03-13T04:35:09;14.10;55.50
14101;DHT22;7127;49.372;8.166;2023-03-13T04:37:36;14.10;55.50
14101;DHT22;7127;49.372;8.166;2023-03-13T04:40:04;14.10;55.70
14101;DHT22;7127;49.372;8.166;2023-03-13T04:42:32;14.10;55.60
14101;DHT22;7127;49.372;8.166;2023-03-13T04:44:59;14.10;55.60
14101;DHT22;7127;49.372;8.166;2023-03-13T04:47:26;14.10;55.70
14101;DHT22;7127;49.372;8.166;2023-03-13T04:49:53;14.10;56.50
14101;DHT22;7127;49.372;8.166;2023-03-13T04:52:20;14.00;56.10
14101;DHT22;7127;49.372;8.166;2023-03-13T04:54:47;14.10;56.20
14101;DHT22;7127;49.372;8.166;2023-03-13T04:57:15;14.10;56.30
14101;DHT22;7127;49.372;8.166;2023-03-13T04:59:43;14.10;56.40
14101;DHT22;7127;49.372;8.166;2023-03-13T05:02:11;14.10;56.60
14101;DHT22;7127;49.372;8.166;2023-03-13T05:04:38;14.10;56.70
14101;DHT22;7127;49.372;8.166;2023-03-13T05:07:05;14.10;57.20
14101;DHT22;7127;49.372;8.166;2023-03-13T05:09:32;14.20;57.90
14101;DHT22;7127;49.372;8.166;2023-03-13T05:11:59;14.20;57.70
14101;DHT22;7127;49.372;8.166;2023-03-13T05:14:25;14.30;57.80
14101;DHT22;7127;49.372;8.166;2023-03-13T05:16:54;14.30;57.80
14101;DHT22;7127;49.372;8.166;2023-03-13T05:19:20;14.40;58.00
14101;DHT22;7127;49.372;8.166;2023-03-13T05:21:47;14.50;58.40
14101;DHT22;7127;49.372;8.166;2023-03-13T05:24:14;14.50;58.10
14101;DHT22;7127;49.372;8.166;2023-03-13T05:26:41;14.60;58.40
14101;DHT22;7127;49.372;8.166;2023-03-13T05:29:08;14.60;58.60
14101;DHT22;7127;49.372;8.166;2023-03-13T05:31:35;14.70;58.20
14101;DHT22;7127;49.372;8.166;2023-03-13T05:34:03;14.70;59.30
14101;DHT22;7127;49.372;8.166;2023-03-13T05:36:30;15.30;58.70
14101;DHT22;7127;49.372;8.166;2023-03-13T05:38:57;14.80;58.70
14101;DHT22;7127;49.372;8.166;2023-03-13T05:41:23;14.90;58.50
14101;DHT22;7127;49.372;8.166;2023-03-13T05:43:50;14.90;58.40
14101;DHT22;7127;49.372;8.166;2023-03-13T05:46:17;14.90;58.40
14101;DHT22;7127;49.372;8.166;2023-03-13T05:48:44;15.00;58.80
14101;DHT22;7127;49.372;8.166;2023-03-13T05:51:12;15.00;58.50
14101;DHT22;7127;49.372;8.166;2023-03-13T05:53:39;15.00;58.40
14101;DHT22;7127;49.372;8.166;2023-03-13T05:56:06;15.10;58.50
14101;DHT22;7127;49.372;8.166;2023-03-13T05:58:33;15.10;58.40
14101;DHT22;7127;49.372;8.166;2023-03-13T06:01:05;15.20;58.40
14101;DHT22;7127;49.372;8.166;2023-03-13T06:03:32;15.20;58.40
14101;DHT22;7127;49.372;8.166;2023-03-13T06:05:59;15.30;58.40
14101;DHT22;7127;49.372;8.166;2023-03-13T06:08:27;15.30;58.60
14101;DHT22;7127;49.372;8.166;2023-03-13T06:10:58;15.30;58.70
14101;DHT22;7127;49.372;8.166;2023-03-13T06:13:24;15.30;58.90
14101;DHT22;7127;49.372;8.166;2023-03-13T06:15:51;15.30;58.90
14101;DHT22;7127;49.372;8.166;2023-03-13T06:18:18;15.40;58.60
14101;DHT22;7127;49.372;8.166;2023-03-13T06:20:45;15.40;58.60
14101;DHT22;7127;49.372;8.166;2023-03-13T06:23:12;15.40;58.40
14101;DHT22;7127;49.372;8.166;2023-03-13T06:25:40;15.50;58.70
14101;DHT22;7127;49.372;8.166;2023-03-13T06:28:08;15.50;58.80
14101;DHT22;7127;49.372;8.166;2023-03-13T06:30:35;15.50;58.60
14101;DHT22;7127;49.372;8.166;2023-03-13T06:33:02;15.50;58.70
14101;DHT22;7127;49.372;8.166;2023-03-13T06:35:28;15.50;58.70
14101;DHT22;7127;49.372;8.166;2023-03-13T06:37:55;15.60;58.80
14101;DHT22;7127;49.372;8.166;2023-03-13T06:40:22;15.60;58.60
14101;DHT22;7127;49.372;8.166;2023-03-13T06:42:50;15.60;58.80
14101;DHT22;7127;49.372;8.166;2023-03-13T06:45:18;15.70;58.70
14101;DHT22;7127;49.372;8.166;2023-03-13T06:47:45;15.70;58.80
14101;DHT22;7127;49.372;8.166;2023-03-13T06:50:12;15.70;58.60
14101;DHT22;7127;49.372;8.166;2023-03-13T06:52:39;15.70;58.70
14101;DHT22;7127;49.372;8.166;2023-03-13T06:55:06;15.80;58.90
14101;DHT22;7127;49.372;8.166;2023-03-13T06:57:33;15.80;58.60
14101;DHT22;7127;49.372;8.166;2023-03-13T07:00:02;16.00;58.70
14101;DHT22;7127;49.372;8.166;2023-03-13T07:02:31;15.90;58.80
14101;DHT22;7127;49.372;8.166;2023-03-13T07:04:58;15.90;58.60
14101;DHT22;7127;49.372;8.166;2023-03-13T07:07:25;16.00;58.60
14101;DHT22;7127;49.372;8.166;2023-03-13T07:09:51;16.00;58.60
14101;DHT22;7127;49.372;8.166;2023-03-13T07:12:18;16.00;58.50
14101;DHT22;7127;49.372;8.166;2023-03-13T07:14:45;16.10;58.50
14101;DHT22;7127;49.372;8.166;2023-03-13T07:17:13;16.10;58.50
14101;DHT22;7127;49.372;8.166;2023-03-13T07:19:40;16.20;58.50
14101;DHT22;7127;49.372;8.166;2023-03-13T07:22:07;16.20;58.50
14101;DHT22;7127;49.372;8.166;2023-03-13T07:24:34;16.30;58.50
14101;DHT22;7127;49.372;8.166;2023-03-13T07:27:01;16.20;58.30
14101;DHT22;7127;49.372;8.166;2023-03-13T07:29:28;16.30;58.50
14101;DHT22;7127;49.372;8.166;2023-03-13T07:31:54;16.30;58.30
14101;DHT22;7127;49.372;8.166;2023-03-13T07:34:23;16.40;58.50
14101;DHT22;7127;49.372;8.166;2023-03-13T07:36:50;16.40;58.20
14101;DHT22;7127;49.372;8.166;2023-03-13T07:39:16;16.40;58.20
14101;DHT22;7127;49.372;8.166;2023-03-13T07:41:43;16.40;58.10
14101;DHT22;7127;49.372;8.166;2023-03-13T07:44:10;16.50;58.10
14101;DHT22;7127;49.372;8.166;2023-03-13T07:46:37;16.50;58.20
14101;DHT22;7127;49.372;8.166;2023-03-13T07:49:04;16.50;58.00
14101;DHT22;7127;49.372;8.166;2023-03-13T07:51:33;16.50;58.10
14101;DHT22;7127;49.372;8.166;2023-03-13T07:54:00;16.70;58.10
14101;DHT22;7127;49.372;8.166;2023-03-13T07:56:27;16.60;57.90
14101;DHT22;7127;49.372;8.166;2023-03-13T07:58:54;16.60;57.90
14101;DHT22;7127;49.372;8.166;2023-03-13T08:01:22;16.60;57.80
14101;DHT22;7127;49.372;8.166;2023-03-13T08:03:49;16.60;57.70
14101;DHT22;7127;49.372;8.166;2023-03-13T08:06:17;16.70;57.90
14101;DHT22;7127;49.372;8.166;2023-03-13T08:08:46;16.60;57.70
14101;DHT22;7127;49.372;8.166;2023-03-13T08:11:15;16.70;57.80
14101;DHT22;7127;49.372;8.166;2023-03-13T08:13:42;16.70;57.90
14101;DHT22;7127;49.372;8.166;2023-03-13T08:16:11;16.60;57.70
14101;DHT22;7127;49.372;8.166;2023-03-13T08:18:40;16.70;57.80
14101;DHT22;7127;49.372;8.166;2023-03-13T08:21:09;16.70;58.40
14101;DHT22;7127;49.372;8.166;2023-03-13T08:23:37;16.70;57.80
14101;DHT22;7127;49.372;8.166;2023-03-13T08:26:07;16.70;57.80
14101;DHT22;7127;49.372;8.166;2023-03-13T08:28:35;16.70;57.80
14101;DHT22;7127;49.372;8.166;2023-03-13T08:31:07;16.60;57.60
14101;DHT22;7127;49.372;8.166;2023-03-13T08:33:34;16.70;57.70
14101;DHT22;7127;49.372;8.166;2023-03-13T08:36:09;16.70;57.70
14101;DHT22;7127;49.372;8.166;2023-03-13T08:38:36;16.70;57.90
14101;DHT22;7127;49.372;8.166;2023-03-13T08:41:03;16.70;58.30
14101;DHT22;7127;49.372;8.166;2023-03-13T08:43:31;16.80;57.90
14101;DHT22;7127;49.372;8.166;2023-03-13T08:45:58;16.60;57.70
14101;DHT22;7127;49.372;8.166;2023-03-13T08:48:25;16.80;58.00
14101;DHT22;7127;49.372;8.166;2023-03-13T08:50:59;16.80;58.00
14101;DHT22;7127;49.372;8.166;2023-03-13T08:53:27;16.80;57.90
14101;DHT22;7127;49.372;8.166;2023-03-13T08:55:54;16.90;58.00
14101;DHT22;7127;49.372;8.166;2023-03-13T08:58:22;16.80;57.90
14101;DHT22;7127;49.372;8.166;2023-03-13T09:00:50;16.90;58.10
14101;DHT22;7127;49.372;8.166;2023-03-13T09:03:17;16.80;58.00
14101;DHT22;7127;49.372;8.166;2023-03-13T09:05:44;16.90;58.00
14101;DHT22;7127;49.372;8.166;2023-03-13T09:08:12;17.10;58.20
14101;DHT22;7127;49.372;8.166;2023-03-13T09:10:40;17.10;58.20
14101;DHT22;7127;49.372;8.166;2023-03-13T09:13:06;17.20;58.30
14101;DHT22;7127;49.372;8.166;2023-03-13T09:15:33;17.30;58.30
14101;DHT22;7127;49.372;8.166;2023-03-13T09:18:02;17.30;58.20
14101;DHT22;7127;49.372;8.166;2023-03-13T09:20:30;17.40;58.20
14101;DHT22;7127;49.372;8.166;2023-03-13T09:22:57;17.30;57.80
14101;DHT22;7127;49.372;8.166;2023-03-13T09:25:24;17.50;57.80
14101;DHT22;7127;49.372;8.166;2023-03-13T09:27:51;17.60;57.70
14101;DHT22;7127;49.372;8.166;2023-03-13T09:30:18;17.60;57.50
14101;DHT22;7127;49.372;8.166;2023-03-13T09:32:45;17.60;57.50
14101;DHT22;7127;49.372;8.166;2023-03-13T09:35:13;17.70;57.50
14101;DHT22;7127;49.372;8.166;2023-03-13T09:37:40;17.70;57.50
14101;DHT22;7127;49.372;8.166;2023-03-13T09:40:12;17.80;57.50
14101;DHT22;7127;49.372;8.166;2023-03-13T09:42:45;17.80;57.40
14101;DHT22;7127;49.372;8.166;2023-03-13T09:45:15;17.90;57.40
14101;DHT22;7127;49.372;8.166;2023-03-13T09:47:45;17.80;57.40
14101;DHT22;7127;49.372;8.166;2023-03-13T09:50:18;17.90;57.40
14101;DHT22;7127;49.372;8.166;2023-03-13T09:52:48;17.90;57.30
14101;DHT22;7127;49.372;8.166;2023-03-13T09:55:19;18.10;57.50
14101;DHT22;7127;49.372;8.166;2023-03-13T09:57:50;18.10;57.40
14101;DHT22;7127;49.372;8.166;2023-03-13T10:00:24;18.10;57.30
14101;DHT22;7127;49.372;8.166;2023-03-13T10:02:56;18.20;57.30
14101;DHT22;7127;49.372;8.166;2023-03-13T10:05:27;18.30;57.30
14101;DHT22;7127;49.372;8.166;2023-03-13T10:07:56;18.40;57.40
14101;DHT22;7127;49.372;8.166;2023-03-13T10:10:28;18.60;57.50
14101;DHT22;7127;49.372;8.166;2023-03-13T10:13:02;18.60;57.30
14101;DHT22;7127;49.372;8.166;2023-03-13T10:15:40;18.70;57.20
14101;DHT22;7127;49.372;8.166;2023-03-13T10:18:17;18.80;56.90
14101;DHT22;7127;49.372;8.166;2023-03-13T10:20:47;18.90;56.80
14101;DHT22;7127;49.372;8.166;2023-03-13T10:23:20;19.00;56.80
14101;DHT22;7127;49.372;8.166;2023-03-13T10:25:47;19.00;56.50
14101;DHT22;7127;49.372;8.166;2023-03-13T10:28:15;19.10;56.40
14101;DHT22;7127;49.372;8.166;2023-03-13T10:30:46;19.10;56.20
14101;DHT22;7127;49.372;8.166;2023-03-13T10:33:19;19.10;56.30
14101;DHT22;7127;49.372;8.166;2023-03-13T10:35:59;19.20;56.40
14101;DHT22;7127;49.372;8.166;2023-03-13T10:38:26;19.40;56.60
14101;DHT22;7127;49.372;8.166;2023-03-13T10:40:56;19.30;56.60
14101;DHT22;7127;49.372;8.166;2023-03-13T10:43:25;19.50;56.50
14101;DHT22;7127;49.372;8.166;2023-03-13T10:45:52;19.50;56.30
14101;DHT22;7127;49.372;8.166;2023-03-13T10:48:20;19.70;56.20
14101;DHT22;7127;49.372;8.166;2023-03-13T10:50:50;19.70;55.90
14101;DHT22;7127;49.372;8.166;2023-03-13T10:53:24;19.70;55.80
14101;DHT22;7127;49.372;8.166;2023-03-13T10:55:52;19.80;55.90
14101;DHT22;7127;49.372;8.166;2023-03-13T10:58:22;19.80;55.80
14101;DHT22;7127;49.372;8.166;2023-03-13T11:00:50;19.80;55.60
14101;DHT22;7127;49.372;8.166;2023-03-13T11:03:18;19.90;55.60
14101;DHT22;7127;49.372;8.166;2023-03-13T11:05:58;20.00;55.60
14101;DHT22;7127;49.372;8.166;2023-03-13T11:08:27;20.00;55.40
14101;DHT22;7127;49.372;8.166;2023-03-13T11:10:57;20.10;55.60
14101;DHT22;7127;49.372;8.166;2023-03-13T11:13:34;20.10;55.50
14101;DHT22;7127;49.372;8.166;2023-03-13T11:16:09;20.20;55.10
14101;DHT22;7127;49.372;8.166;2023-03-13T11:18:50;20.30;55.70
14101;DHT22;7127;49.372;8.166;2023-03-13T11:21:27;20.30;54.80
14101;DHT22;7127;49.372;8.166;2023-03-13T11:24:00;20.30;54.50
14101;DHT22;7127;49.372;8.166;2023-03-13T11:26:34;20.40;54.60
14101;DHT22;7127;49.372;8.166;2023-03-13T11:29:05;20.50;54.60
14101;DHT22;7127;49.372;8.166;2023-03-13T11:31:38;20.40;54.50
14101;DHT22;7127;49.372;8.166;2023-03-13T11:34:10;20.50;54.60
14101;DHT22;7127;49.372;8.166;2023-03-13T11:36:46;20.60;54.70
14101;DHT22;7127;49.372;8.166;2023-03-13T11:39:37;20.60;54.40
14101;DHT22;7127;49.372;8.166;2023-03-13T11:42:12;20.70;54.40
14101;DHT22;7127;49.372;8.166;2023-03-13T11:44:53;20.70;54.20
14101;DHT22;7127;49.372;8.166;2023-03-13T11:50:28;20.90;54.20
14101;DHT22;7127;49.372;8.166;2023-03-13T11:53:15;20.90;53.90
14101;DHT22;7127;49.372;8.166;2023-03-13T11:55:53;20.90;53.60
14101;DHT22;7127;49.372;8.166;2023-03-13T11:58:38;21.00;53.60
14101;DHT22;7127;49.372;8.166;2023-03-13T12:01:09;21.00;53.60
14101;DHT22;7127;49.372;8.166;2023-03-13T12:03:42;21.00;53.60
14101;DHT22;7127;49.372;8.166;2023-03-13T12:06:16;21.00;53.60
14101;DHT22;7127;49.372;8.166;2023-03-13T12:08:49;21.20;53.40
14101;DHT22;7127;49.372;8.166;2023-03-13T12:11:21;21.20;53.20
14101;DHT22;7127;49.372;8.166;2023-03-13T12:13:54;21.30;53.30
14101;DHT22;7127;49.372;8.166;2023-03-13T12:16:29;21.30;53.10
14101;DHT22;7127;49.372;8.166;2023-03-13T12:19:00;21.30;53.00
14101;DHT22;7127;49.372;8.166;2023-03-13T12:21:29;21.40;52.90
14101;DHT22;7127;49.372;8.166;2023-03-13T12:24:03;21.50;52.80
14101;DHT22;7127;49.372;8.166;2023-03-13T12:26:38;21.50;52.80
14101;DHT22;7127;49.372;8.166;2023-03-13T12:29:13;21.60;52.80
14101;DHT22;7127;49.372;8.166;2023-03-13T12:31:42;21.60;52.70
14101;DHT22;7127;49.372;8.166;2023-03-13T12:34:17;21.60;52.50
14101;DHT22;7127;49.372;8.166;2023-03-13T12:36:48;21.70;52.40
14101;DHT22;7127;49.372;8.166;2023-03-13T12:39:25;21.80;52.50
14101;DHT22;7127;49.372;8.166;2023-03-13T12:42:07;21.90;52.50
14101;DHT22;7127;49.372;8.166;2023-03-13T12:44:36;21.90;52.20
14101;DHT22;7127;49.372;8.166;2023-03-13T12:47:08;21.90;52.30
14101;DHT22;7127;49.372;8.166;2023-03-13T12:49:57;22.00;52.30
14101;DHT22;7127;49.372;8.166;2023-03-13T12:52:42;22.10;51.90
14101;DHT22;7127;49.372;8.166;2023-03-13T12:55:28;22.10;51.80
14101;DHT22;7127;49.372;8.166;2023-03-13T12:58:17;22.10;51.20
14101;DHT22;7127;49.372;8.166;2023-03-13T13:00:48;22.10;51.60
14101;DHT22;7127;49.372;8.166;2023-03-13T13:03:25;22.10;51.90
14101;DHT22;7127;49.372;8.166;2023-03-13T13:06:02;22.20;51.80
14101;DHT22;7127;49.372;8.166;2023-03-13T13:08:33;22.20;51.70
14101;DHT22;7127;49.372;8.166;2023-03-13T13:17:24;22.40;50.70
14101;DHT22;7127;49.372;8.166;2023-03-13T13:19:52;22.40;51.20
14101;DHT22;7127;49.372;8.166;2023-03-13T13:22:47;22.40;51.30
14101;DHT22;7127;49.372;8.166;2023-03-13T13:25:32;22.50;51.10
14101;DHT22;7127;49.372;8.166;2023-03-13T13:28:21;22.50;51.00
14101;DHT22;7127;49.372;8.166;2023-03-13T13:30:51;22.60;51.10
14101;DHT22;7127;49.372;8.166;2023-03-13T13:33:37;22.60;51.30
14101;DHT22;7127;49.372;8.166;2023-03-13T13:36:30;22.70;50.90
14101;DHT22;7127;49.372;8.166;2023-03-13T13:38:57;22.70;50.50
14101;DHT22;7127;49.372;8.166;2023-03-13T13:41:34;22.80;51.10
14101;DHT22;7127;49.372;8.166;2023-03-13T13:44:26;22.80;51.50
14101;DHT22;7127;49.372;8.166;2023-03-13T13:46:56;22.90;50.70
14101;DHT22;7127;49.372;8.166;2023-03-13T13:49:35;22.90;50.80
14101;DHT22;7127;49.372;8.166;2023-03-13T13:52:31;23.00;50.60
14101;DHT22;7127;49.372;8.166;2023-03-13T13:54:58;23.00;50.30
14101;DHT22;7127;49.372;8.166;2023-03-13T13:57:26;23.10;50.40
14101;DHT22;7127;49.372;8.166;2023-03-13T14:00:00;23.10;50.30
14101;DHT22;7127;49.372;8.166;2023-03-13T14:02:34;23.10;50.10
14101;DHT22;7127;49.372;8.166;2023-03-13T14:05:06;23.10;49.30
14101;DHT22;7127;49.372;8.166;2023-03-13T14:07:55;23.10;49.40
14101;DHT22;7127;49.372;8.166;2023-03-13T14:10:34;23.10;49.20
14101;DHT22;7127;49.372;8.166;2023-03-13T14:13:09;23.10;49.40
14101;DHT22;7127;49.372;8.166;2023-03-13T14:15:41;23.10;50.00
14101;DHT22;7127;49.372;8.166;2023-03-13T14:18:12;23.10;49.10
14101;DHT22;7127;49.372;8.166;2023-03-13T14:20:52;23.10;49.20
14101;DHT22;7127;49.372;8.166;2023-03-13T14:23:35;23.10;49.00
14101;DHT22;7127;49.372;8.166;2023-03-13T14:26:12;23.10;48.80
14101;DHT22;7127;49.372;8.166;2023-03-13T14:28:42;23.10;49.00
14101;DHT22;7127;49.372;8.166;2023-03-13T14:31:09;23.10;49.20
14101;DHT22;7127;49.372;8.166;2023-03-13T14:33:47;23.10;49.00
14101;DHT22;7127;49.372;8.166;2023-03-13T14:36:14;23.10;49.00
14101;DHT22;7127;49.372;8.166;2023-03-13T14:38:50;23.10;48.80
14101;DHT22;7127;49.372;8.166;2023-03-13T14:41:29;23.10;48.40
14101;DHT22;7127;49.372;8.166;2023-03-13T14:44:02;23.00;48.30
14101;DHT22;7127;49.372;8.166;2023-03-13T14:46:31;23.00;48.30
14101;DHT22;7127;49.372;8.166;2023-03-13T14:49:07;22.80;48.20
14101;DHT22;7127;49.372;8.166;2023-03-13T14:51:38;22.90;48.00
14101;DHT22;7127;49.372;8.166;2023-03-13T14:54:05;22.80;48.10
14101;DHT22;7127;49.372;8.166;2023-03-13T14:56:47;22.80;48.20
14101;DHT22;7127;49.372;8.166;2023-03-13T14:59:16;22.80;48.10
14101;DHT22;7127;49.372;8.166;2023-03-13T15:01:44;22.80;48.20
14101;DHT22;7127;49.372;8.166;2023-03-13T15:04:12;22.80;48.20
14101;DHT22;7127;49.372;8.166;2023-03-13T15:06:39;22.70;48.10
14101;DHT22;7127;49.372;8.166;2023-03-13T15:09:14;22.70;48.10
14101;DHT22;7127;49.372;8.166;2023-03-13T15:11:42;22.70;48.10
14101;DHT22;7127;49.372;8.166;2023-03-13T15:14:40;22.70;48.10
14101;DHT22;7127;49.372;8.166;2023-03-13T15:17:16;22.70;47.40
14101;DHT22;7127;49.372;8.166;2023-03-13T15:19:49;22.70;48.10
14101;DHT22;7127;49.372;8.166;2023-03-13T15:22:27;22.70;48.10
14101;DHT22;7127;49.372;8.166;2023-03-13T15:24:54;22.60;48.00
14101;DHT22;7127;49.372;8.166;2023-03-13T15:27:23;22.70;48.10
14101;DHT22;7127;49.372;8.166;2023-03-13T15:29:51;22.70;47.90
14101;DHT22;7127;49.372;8.166;2023-03-13T15:32:23;22.70;48.10
14101;DHT22;7127;49.372;8.166;2023-03-13T15:34:52;22.80;47.60
14101;DHT22;7127;49.372;8.166;2023-03-13T15:37:23;22.70;47.40
14101;DHT22;7127;49.372;8.166;2023-03-13T15:39:50;22.80;47.40
14101;DHT22;7127;49.372;8.166;2023-03-13T15:42:16;22.90;47.00
14101;DHT22;7127;49.372;8.166;2023-03-13T15:44:43;22.80;46.80
14101;DHT22;7127;49.372;8.166;2023-03-13T15:47:11;22.80;46.90
14101;DHT22;7127;49.372;8.166;2023-03-13T15:49:40;22.80;46.80
14101;DHT22;7127;49.372;8.166;2023-03-13T15:52:13;22.80;46.80
14101;DHT22;7127;49.372;8.166;2023-03-13T15:54:42;22.70;45.60
14101;DHT22;7127;49.372;8.166;2023-03-13T15:57:11;22.70;44.80
14101;DHT22;7127;49.372;8.166;2023-03-13T15:59:38;22.60;44.00
14101;DHT22;7127;49.372;8.166;2023-03-13T16:02:13;22.50;44.40
14101;DHT22;7127;49.372;8.166;2023-03-13T16:04:40;22.30;44.40
14101;DHT22;7127;49.372;8.166;2023-03-13T16:07:08;22.30;44.30
14101;DHT22;7127;49.372;8.166;2023-03-13T16:09:37;22.10;44.40
14101;DHT22;7127;49.372;8.166;2023-03-13T16:12:04;22.00;44.40